sensor_id;sensor_type;location;lat;lon;timestamp;pressure;altitude;pressure_sealevel;temperature;humidity
49063;BME280;34876;51.464;-0.150;2022-10-19T00:03:34;102586.66;;;18.54;52.78
49063;BME280;34876;51.464;-0.150;2022-10-19T00:06:13;102585.10;;;18.80;51.99
49063;BME280;34876;51.464;-0.150;2022-10-19T00:08:43;102580.91;;;18.87;51.71
49063;BME280;34876;51.464;-0.150;2022-10-19T00:11:12;102579.85;;;18.89;51.58
49063;BME280;34876;51.464;-0.150;2022-10-19T00:13:41;102582.42;;;18.84;51.67
49063;BME280;34876;51.464;-0.150;2022-10-19T00:16:12;102582.20;;;18.97;51.27
49063;BME280;34876;51.464;-0.150;2022-10-19T00:18:42;102577.01;;;19.00;51.16
49063;BME280;34876;51.464;-0.150;2022-10-19T00:21:14;102573.44;;;19.03;51.02
49063;BME280;34876;51.464;-0.150;2022-10-19T00:23:44;102572.95;;;18.95;51.28
49063;BME280;34876;51.464;-0.150;2022-10-19T00:26:13;102570.26;;;19.01;51.09
49063;BME280;34876;51.464;-0.150;2022-10-19T00:28:42;102566.55;;;18.99;51.12
49063;BME280;34876;51.464;-0.150;2022-10-19T00:31:13;102560.11;;;18.82;51.66
49063;BME280;34876;51.464;-0.150;2022-10-19T00:33:44;102551.54;;;18.58;52.36
49063;BME280;34876;51.464;-0.150;2022-10-19T00:36:15;102542.58;;;18.43;52.80
49063;BME280;34876;51.464;-0.150;2022-10-19T00:38:44;102534.24;;;18.45;52.76
49063;BME280;34876;51.464;-0.150;2022-10-19T00:41:14;102529.20;;;18.22;53.41
49063;BME280;34876;51.464;-0.150;2022-10-19T00:43:54;102526.10;;;17.95;54.39
49063;BME280;34876;51.464;-0.150;2022-10-19T00:46:25;102520.22;;;18.40;52.98
49063;BME280;34876;51.464;-0.150;2022-10-19T00:48:58;102518.74;;;18.64;52.25
49063;BME280;34876;51.464;-0.150;2022-10-19T00:51:31;102516.43;;;18.84;51.99
49063;BME280;34876;51.464;-0.150;2022-10-19T00:54:02;102515.46;;;18.31;53.21
49063;BME280;34876;51.464;-0.150;2022-10-19T00:56:33;102513.18;;;18.67;52.16
49063;BME280;34876;51.464;-0.150;2022-10-19T00:59:03;102519.82;;;18.00;55.32
49063;BME280;34876;51.464;-0.150;2022-10-19T01:01:33;102524.99;;;18.31;53.30
49063;BME280;34876;51.464;-0.150;2022-10-19T01:04:02;102526.11;;;18.12;54.35
49063;BME280;34876;51.464;-0.150;2022-10-19T01:06:33;102521.12;;;18.33;53.20
49063;BME280;34876;51.464;-0.150;2022-10-19T01:09:03;102515.67;;;18.07;54.08
49063;BME280;34876;51.464;-0.150;2022-10-19T01:11:38;102511.89;;;18.35;53.17
49063;BME280;34876;51.464;-0.150;2022-10-19T01:14:26;102514.76;;;18.74;52.19
49063;BME280;34876;51.464;-0.150;2022-10-19T01:17:02;102514.02;;;18.14;53.80
49063;BME280;34876;51.464;-0.150;2022-10-19T01:19:55;102507.76;;;18.60;52.49
49063;BME280;34876;51.464;-0.150;2022-10-19T01:22:39;102511.83;;;18.69;52.18
49063;BME280;34876;51.464;-0.150;2022-10-19T01:25:20;102514.16;;;18.24;54.72
49063;BME280;34876;51.464;-0.150;2022-10-19T01:28:01;102508.11;;;17.99;55.26
49063;BME280;34876;51.464;-0.150;2022-10-19T01:30:41;102500.68;;;18.21;54.31
49063;BME280;34876;51.464;-0.150;2022-10-19T01:33:26;102506.86;;;18.30;53.99
49063;BME280;34876;51.464;-0.150;2022-10-19T01:36:05;102505.39;;;17.87;55.44
49063;BME280;34876;51.464;-0.150;2022-10-19T01:38:41;102502.57;;;18.15;53.88
49063;BME280;34876;51.464;-0.150;2022-10-19T01:41:16;102502.49;;;18.20;53.71
49063;BME280;34876;51.464;-0.150;2022-10-19T01:43:52;102510.11;;;18.45;52.97
49063;BME280;34876;51.464;-0.150;2022-10-19T01:46:26;102508.77;;;18.52;52.74
49063;BME280;34876;51.464;-0.150;2022-10-19T01:49:01;102505.28;;;18.59;52.52
49063;BME280;34876;51.464;-0.150;2022-10-19T01:51:36;102501.74;;;18.35;53.25
49063;BME280;34876;51.464;-0.150;2022-10-19T01:54:11;102494.46;;;17.83;56.14
49063;BME280;34876;51.464;-0.150;2022-10-19T01:56:43;102485.07;;;18.26;54.52
49063;BME280;34876;51.464;-0.150;2022-10-19T01:59:15;102485.13;;;17.28;58.04
49063;BME280;34876;51.464;-0.150;2022-10-19T02:01:47;102480.77;;;18.30;53.51
49063;BME280;34876;51.464;-0.150;2022-10-19T02:04:19;102479.95;;;18.11;54.04
49063;BME280;34876;51.464;-0.150;2022-10-19T02:06:49;102479.34;;;18.13;54.00
49063;BME280;34876;51.464;-0.150;2022-10-19T02:09:19;102478.71;;;17.92;54.58
49063;BME280;34876;51.464;-0.150;2022-10-19T02:11:50;102476.22;;;17.76;55.30
49063;BME280;34876;51.464;-0.150;2022-10-19T02:14:22;102469.55;;;17.59;55.84
49063;BME280;34876;51.464;-0.150;2022-10-19T02:16:58;102462.57;;;18.18;53.87
49063;BME280;34876;51.464;-0.150;2022-10-19T02:19:30;102459.56;;;18.26;53.64
49063;BME280;34876;51.464;-0.150;2022-10-19T02:22:00;102455.29;;;18.08;54.15
49063;BME280;34876;51.464;-0.150;2022-10-19T02:24:30;102451.53;;;17.85;55.16
49063;BME280;34876;51.464;-0.150;2022-10-19T02:27:00;102452.67;;;17.97;55.42
49063;BME280;34876;51.464;-0.150;2022-10-19T02:29:31;102455.54;;;18.15;53.97
49063;BME280;34876;51.464;-0.150;2022-10-19T02:32:01;102452.54;;;18.22;53.76
49063;BME280;34876;51.464;-0.150;2022-10-19T02:34:31;102445.73;;;17.74;55.31
49063;BME280;34876;51.464;-0.150;2022-10-19T02:37:01;102441.96;;;17.79;55.91
49063;BME280;34876;51.464;-0.150;2022-10-19T02:39:31;102435.74;;;18.24;53.72
49063;BME280;34876;51.464;-0.150;2022-10-19T02:42:05;102433.77;;;17.65;55.52
49063;BME280;34876;51.464;-0.150;2022-10-19T02:44:39;102427.36;;;17.95;54.93
49063;BME280;34876;51.464;-0.150;2022-10-19T02:47:14;102411.94;;;17.52;56.03
49063;BME280;34876;51.464;-0.150;2022-10-19T02:49:47;102408.47;;;17.52;57.17
49063;BME280;34876;51.464;-0.150;2022-10-19T02:52:17;102411.89;;;16.87;58.86
49063;BME280;34876;51.464;-0.150;2022-10-19T02:54:47;102406.29;;;17.94;54.78
49063;BME280;34876;51.464;-0.150;2022-10-19T02:57:19;102400.67;;;18.31;53.58
49063;BME280;34876;51.464;-0.150;2022-10-19T02:59:48;102397.00;;;18.30;53.57
49063;BME280;34876;51.464;-0.150;2022-10-19T03:02:19;102391.82;;;18.15;54.03
49063;BME280;34876;51.464;-0.150;2022-10-19T03:04:49;102389.18;;;18.10;54.28
49063;BME280;34876;51.464;-0.150;2022-10-19T03:07:19;102383.90;;;17.68;55.48
49063;BME280;34876;51.464;-0.150;2022-10-19T03:09:48;102380.58;;;17.85;55.06
49063;BME280;34876;51.464;-0.150;2022-10-19T03:12:18;102369.02;;;18.50;52.98
49063;BME280;34876;51.464;-0.150;2022-10-19T03:14:47;102367.41;;;18.55;52.75
49063;BME280;34876;51.464;-0.150;2022-10-19T03:17:17;102364.86;;;18.61;52.58
49063;BME280;34876;51.464;-0.150;2022-10-19T03:19:46;102368.78;;;18.10;54.38
49063;BME280;34876;51.464;-0.150;2022-10-19T03:22:15;102366.40;;;18.47;53.09
49063;BME280;34876;51.464;-0.150;2022-10-19T03:24:44;102374.58;;;17.89;55.63
49063;BME280;34876;51.464;-0.150;2022-10-19T03:27:13;102368.89;;;18.16;53.95
49063;BME280;34876;51.464;-0.150;2022-10-19T03:29:41;102368.17;;;18.46;53.04
49063;BME280;34876;51.464;-0.150;2022-10-19T03:32:10;102364.99;;;18.40;53.23
49063;BME280;34876;51.464;-0.150;2022-10-19T03:34:39;102371.05;;;17.79;55.16
49063;BME280;34876;51.464;-0.150;2022-10-19T03:37:08;102372.81;;;17.95;54.70
49063;BME280;34876;51.464;-0.150;2022-10-19T03:39:37;102364.41;;;18.56;52.80
49063;BME280;34876;51.464;-0.150;2022-10-19T03:42:06;102363.86;;;17.94;54.63
49063;BME280;34876;51.464;-0.150;2022-10-19T03:44:35;102358.06;;;17.80;55.40
49063;BME280;34876;51.464;-0.150;2022-10-19T03:47:05;102349.95;;;17.67;55.71
49063;BME280;34876;51.464;-0.150;2022-10-19T03:49:34;102340.10;;;18.05;54.68
49063;BME280;34876;51.464;-0.150;2022-10-19T03:52:02;102339.71;;;17.79;56.38
49063;BME280;34876;51.464;-0.150;2022-10-19T03:54:32;102330.40;;;18.12;54.14
49063;BME280;34876;51.464;-0.150;2022-10-19T03:57:01;102330.15;;;18.24;54.31
49063;BME280;34876;51.464;-0.150;2022-10-19T03:59:30;102329.13;;;18.43;53.10
49063;BME280;34876;51.464;-0.150;2022-10-19T04:01:58;102324.79;;;18.10;54.11
49063;BME280;34876;51.464;-0.150;2022-10-19T04:04:27;102337.62;;;17.86;54.92
49063;BME280;34876;51.464;-0.150;2022-10-19T04:06:57;102333.11;;;18.26;53.66
49063;BME280;34876;51.464;-0.150;2022-10-19T04:09:26;102339.41;;;17.96;55.15
49063;BME280;34876;51.464;-0.150;2022-10-19T04:11:56;102335.19;;;18.12;54.01
49063;BME280;34876;51.464;-0.150;2022-10-19T04:14:25;102345.55;;;17.83;55.53
49063;BME280;34876;51.464;-0.150;2022-10-19T04:16:54;102337.42;;;18.18;53.87
49063;BME280;34876;51.464;-0.150;2022-10-19T04:19:23;102337.37;;;18.12;54.04
49063;BME280;34876;51.464;-0.150;2022-10-19T04:21:51;102334.97;;;18.06;54.34
49063;BME280;34876;51.464;-0.150;2022-10-19T04:24:21;102336.14;;;18.33;53.39
49063;BME280;34876;51.464;-0.150;2022-10-19T04:26:51;102335.04;;;18.43;53.04
49063;BME280;34876;51.464;-0.150;2022-10-19T04:29:22;102333.80;;;18.29;53.48
49063;BME280;34876;51.464;-0.150;2022-10-19T04:31:52;102327.23;;;18.42;53.84
49063;BME280;34876;51.464;-0.150;2022-10-19T04:34:21;102326.08;;;18.29;53.54
49063;BME280;34876;51.464;-0.150;2022-10-19T04:36:52;102323.45;;;18.32;53.36
49063;BME280;34876;51.464;-0.150;2022-10-19T04:39:21;102319.76;;;18.06;54.56
49063;BME280;34876;51.464;-0.150;2022-10-19T04:41:50;102319.46;;;18.14;53.90
49063;BME280;34876;51.464;-0.150;2022-10-19T04:44:20;102316.27;;;17.81;55.51
49063;BME280;34876;51.464;-0.150;2022-10-19T04:46:48;102308.05;;;18.16;54.45
49063;BME280;34876;51.464;-0.150;2022-10-19T04:49:18;102308.21;;;18.10;54.71
49063;BME280;34876;51.464;-0.150;2022-10-19T04:51:47;102306.64;;;18.20;53.76
49063;BME280;34876;51.464;-0.150;2022-10-19T04:54:16;102309.69;;;18.30;53.42
49063;BME280;34876;51.464;-0.150;2022-10-19T04:56:45;102303.33;;;18.49;52.80
49063;BME280;34876;51.464;-0.150;2022-10-19T04:59:14;102300.43;;;18.25;53.52
49063;BME280;34876;51.464;-0.150;2022-10-19T05:01:43;102293.24;;;18.31;53.38
49063;BME280;34876;51.464;-0.150;2022-10-19T05:04:11;102288.74;;;17.79;54.94
49063;BME280;34876;51.464;-0.150;2022-10-19T05:06:40;102290.51;;;18.34;53.29
49063;BME280;34876;51.464;-0.150;2022-10-19T05:09:09;102296.77;;;18.02;54.30
49063;BME280;34876;51.464;-0.150;2022-10-19T05:11:39;102299.54;;;17.59;55.66
49063;BME280;34876;51.464;-0.150;2022-10-19T05:14:08;102290.64;;;18.21;54.44
49063;BME280;34876;51.464;-0.150;2022-10-19T05:16:37;102287.54;;;17.72;55.73
49063;BME280;34876;51.464;-0.150;2022-10-19T05:19:11;102284.76;;;18.12;54.02
49063;BME280;34876;51.464;-0.150;2022-10-19T05:21:41;102285.95;;;18.10;54.10
49063;BME280;34876;51.464;-0.150;2022-10-19T05:24:11;102281.88;;;18.13;54.31
49063;BME280;34876;51.464;-0.150;2022-10-19T05:26:40;102276.63;;;18.05;54.24
49063;BME280;34876;51.464;-0.150;2022-10-19T05:29:11;102284.31;;;17.60;55.74
49063;BME280;34876;51.464;-0.150;2022-10-19T05:31:41;102279.64;;;18.20;53.97
49063;BME280;34876;51.464;-0.150;2022-10-19T05:34:10;102275.09;;;18.42;53.44
49063;BME280;34876;51.464;-0.150;2022-10-19T05:36:39;102273.67;;;18.10;54.14
49063;BME280;34876;51.464;-0.150;2022-10-19T05:39:11;102265.60;;;17.95;55.08
49063;BME280;34876;51.464;-0.150;2022-10-19T05:41:43;102252.49;;;18.27;53.60
49063;BME280;34876;51.464;-0.150;2022-10-19T05:44:14;102245.94;;;17.56;55.89
49063;BME280;34876;51.464;-0.150;2022-10-19T05:46:44;102246.49;;;18.13;54.05
49063;BME280;34876;51.464;-0.150;2022-10-19T05:49:15;102249.04;;;18.25;55.85
49063;BME280;34876;51.464;-0.150;2022-10-19T05:51:44;102253.64;;;18.40;53.26
49063;BME280;34876;51.464;-0.150;2022-10-19T05:54:14;102252.50;;;18.39;53.28
49063;BME280;34876;51.464;-0.150;2022-10-19T05:56:44;102250.90;;;18.28;53.64
49063;BME280;34876;51.464;-0.150;2022-10-19T05:59:15;102247.06;;;17.71;55.50
49063;BME280;34876;51.464;-0.150;2022-10-19T06:01:46;102236.48;;;18.29;53.64
49063;BME280;34876;51.464;-0.150;2022-10-19T06:04:15;102244.40;;;17.69;55.73
49063;BME280;34876;51.464;-0.150;2022-10-19T06:06:44;102237.36;;;18.20;53.93
49063;BME280;34876;51.464;-0.150;2022-10-19T06:09:13;102242.12;;;17.83;55.03
49063;BME280;34876;51.464;-0.150;2022-10-19T06:11:42;102240.12;;;18.11;54.26
49063;BME280;34876;51.464;-0.150;2022-10-19T06:14:13;102251.72;;;17.39;56.90
49063;BME280;34876;51.464;-0.150;2022-10-19T06:16:42;102246.62;;;18.27;53.82
49063;BME280;34876;51.464;-0.150;2022-10-19T06:19:12;102249.03;;;17.79;57.45
49063;BME280;34876;51.464;-0.150;2022-10-19T06:21:43;102241.50;;;17.93;54.96
49063;BME280;34876;51.464;-0.150;2022-10-19T06:24:13;102260.05;;;16.84;61.21
49063;BME280;34876;51.464;-0.150;2022-10-19T06:26:41;102251.51;;;16.86;60.68
49063;BME280;34876;51.464;-0.150;2022-10-19T06:29:10;102235.82;;;17.75;55.74
49063;BME280;34876;51.464;-0.150;2022-10-19T06:31:40;102244.16;;;17.35;59.87
49063;BME280;34876;51.464;-0.150;2022-10-19T06:34:09;102234.36;;;17.44;56.70
49063;BME280;34876;51.464;-0.150;2022-10-19T06:36:38;102239.20;;;17.53;57.75
49063;BME280;34876;51.464;-0.150;2022-10-19T06:39:07;102233.49;;;17.80;57.58
49063;BME280;34876;51.464;-0.150;2022-10-19T06:41:36;102230.02;;;18.04;54.84
49063;BME280;34876;51.464;-0.150;2022-10-19T06:44:07;102225.04;;;17.93;56.39
49063;BME280;34876;51.464;-0.150;2022-10-19T06:46:36;102223.27;;;17.36;59.81
49063;BME280;34876;51.464;-0.150;2022-10-19T06:49:06;102218.92;;;17.34;59.46
49063;BME280;34876;51.464;-0.150;2022-10-19T06:51:34;102221.50;;;16.97;58.69
49063;BME280;34876;51.464;-0.150;2022-10-19T06:54:03;102212.36;;;17.02;61.27
49063;BME280;34876;51.464;-0.150;2022-10-19T06:56:32;102200.78;;;17.27;58.24
49063;BME280;34876;51.464;-0.150;2022-10-19T06:59:01;102204.64;;;17.74;55.98
49063;BME280;34876;51.464;-0.150;2022-10-19T07:01:31;102205.69;;;17.37;59.73
49063;BME280;34876;51.464;-0.150;2022-10-19T07:04:00;102218.72;;;17.11;58.30
49063;BME280;34876;51.464;-0.150;2022-10-19T07:06:30;102203.11;;;17.61;56.57
49063;BME280;34876;51.464;-0.150;2022-10-19T07:08:59;102196.88;;;17.71;57.17
49063;BME280;34876;51.464;-0.150;2022-10-19T07:11:28;102200.02;;;17.20;59.89
49063;BME280;34876;51.464;-0.150;2022-10-19T07:13:58;102193.98;;;17.88;55.59
49063;BME280;34876;51.464;-0.150;2022-10-19T07:16:27;102196.25;;;18.08;57.30
49063;BME280;34876;51.464;-0.150;2022-10-19T07:18:56;102196.46;;;17.64;57.28
49063;BME280;34876;51.464;-0.150;2022-10-19T07:21:25;102191.72;;;17.19;58.98
49063;BME280;34876;51.464;-0.150;2022-10-19T07:23:54;102178.33;;;17.83;56.62
49063;BME280;34876;51.464;-0.150;2022-10-19T07:26:25;102177.55;;;17.24;58.62
49063;BME280;34876;51.464;-0.150;2022-10-19T07:28:55;102187.55;;;17.40;59.90
49063;BME280;34876;51.464;-0.150;2022-10-19T07:31:26;102191.22;;;17.45;57.50
49063;BME280;34876;51.464;-0.150;2022-10-19T07:33:57;102185.06;;;18.34;54.18
49063;BME280;34876;51.464;-0.150;2022-10-19T07:36:27;102187.95;;;17.76;57.48
49063;BME280;34876;51.464;-0.150;2022-10-19T07:38:57;102185.76;;;17.61;57.74
49063;BME280;34876;51.464;-0.150;2022-10-19T07:41:26;102195.50;;;17.08;60.79
49063;BME280;34876;51.464;-0.150;2022-10-19T07:43:56;102193.23;;;17.37;58.84
49063;BME280;34876;51.464;-0.150;2022-10-19T07:46:27;102202.34;;;17.13;59.40
49063;BME280;34876;51.464;-0.150;2022-10-19T07:48:57;102190.29;;;17.08;59.08
49063;BME280;34876;51.464;-0.150;2022-10-19T07:51:26;102177.61;;;17.97;55.60
49063;BME280;34876;51.464;-0.150;2022-10-19T07:53:56;102175.28;;;17.73;57.67
49063;BME280;34876;51.464;-0.150;2022-10-19T07:56:27;102178.52;;;17.58;59.27
49063;BME280;34876;51.464;-0.150;2022-10-19T07:58:57;102168.53;;;17.81;56.89
49063;BME280;34876;51.464;-0.150;2022-10-19T08:01:29;102167.11;;;17.52;58.17
49063;BME280;34876;51.464;-0.150;2022-10-19T08:03:59;102160.21;;;17.51;57.38
49063;BME280;34876;51.464;-0.150;2022-10-19T08:06:28;102159.65;;;17.46;57.31
49063;BME280;34876;51.464;-0.150;2022-10-19T08:08:57;102170.30;;;17.80;56.47
49063;BME280;34876;51.464;-0.150;2022-10-19T08:11:29;102162.45;;;17.23;60.23
49063;BME280;34876;51.464;-0.150;2022-10-19T08:13:59;102161.02;;;17.49;57.51
49063;BME280;34876;51.464;-0.150;2022-10-19T08:16:30;102150.69;;;17.57;57.02
49063;BME280;34876;51.464;-0.150;2022-10-19T08:19:02;102161.18;;;16.93;61.38
49063;BME280;34876;51.464;-0.150;2022-10-19T08:21:32;102151.02;;;17.74;56.42
49063;BME280;34876;51.464;-0.150;2022-10-19T08:24:02;102151.09;;;17.74;56.73
49063;BME280;34876;51.464;-0.150;2022-10-19T08:26:33;102171.03;;;16.93;61.59
49063;BME280;34876;51.464;-0.150;2022-10-19T08:29:05;102148.53;;;17.10;59.30
49063;BME280;34876;51.464;-0.150;2022-10-19T08:31:36;102145.59;;;17.45;57.69
49063;BME280;34876;51.464;-0.150;2022-10-19T08:34:06;102144.49;;;16.70;61.92
49063;BME280;34876;51.464;-0.150;2022-10-19T08:36:35;102149.69;;;16.67;61.74
49063;BME280;34876;51.464;-0.150;2022-10-19T08:39:06;102140.51;;;16.89;59.78
49063;BME280;34876;51.464;-0.150;2022-10-19T08:41:40;102137.18;;;17.75;56.53
49063;BME280;34876;51.464;-0.150;2022-10-19T08:44:25;102137.41;;;17.76;57.96
49063;BME280;34876;51.464;-0.150;2022-10-19T08:47:02;102134.75;;;17.56;57.63
49063;BME280;34876;51.464;-0.150;2022-10-19T08:49:36;102140.82;;;17.16;59.18
49063;BME280;34876;51.464;-0.150;2022-10-19T08:52:10;102147.30;;;17.30;59.87
49063;BME280;34876;51.464;-0.150;2022-10-19T08:54:45;102137.01;;;17.16;60.37
49063;BME280;34876;51.464;-0.150;2022-10-19T08:57:27;102141.06;;;17.41;59.17
49063;BME280;34876;51.464;-0.150;2022-10-19T09:00:04;102143.43;;;17.32;59.29
49063;BME280;34876;51.464;-0.150;2022-10-19T09:02:46;102130.07;;;17.51;58.31
49063;BME280;34876;51.464;-0.150;2022-10-19T09:05:25;102127.65;;;17.21;58.85
49063;BME280;34876;51.464;-0.150;2022-10-19T09:07:57;102124.68;;;17.59;57.04
49063;BME280;34876;51.464;-0.150;2022-10-19T09:10:28;102127.87;;;17.88;57.48
49063;BME280;34876;51.464;-0.150;2022-10-19T09:13:00;102140.85;;;17.42;59.52
49063;BME280;34876;51.464;-0.150;2022-10-19T09:15:39;102127.93;;;17.46;57.44
49063;BME280;34876;51.464;-0.150;2022-10-19T09:18:09;102133.16;;;17.58;58.81
49063;BME280;34876;51.464;-0.150;2022-10-19T09:20:42;102124.73;;;17.56;57.58
49063;BME280;34876;51.464;-0.150;2022-10-19T09:23:20;102122.45;;;17.48;57.40
49063;BME280;34876;51.464;-0.150;2022-10-19T09:25:50;102121.36;;;17.47;57.91
49063;BME280;34876;51.464;-0.150;2022-10-19T09:28:32;102120.57;;;17.68;58.10
49063;BME280;34876;51.464;-0.150;2022-10-19T09:31:03;102117.52;;;17.41;59.18
49063;BME280;34876;51.464;-0.150;2022-10-19T09:33:36;102114.74;;;17.19;58.21
49063;BME280;34876;51.464;-0.150;2022-10-19T09:36:07;102125.98;;;17.57;57.36
49063;BME280;34876;51.464;-0.150;2022-10-19T09:38:36;102109.08;;;17.79;57.25
49063;BME280;34876;51.464;-0.150;2022-10-19T09:41:16;102114.55;;;17.74;56.48
49063;BME280;34876;51.464;-0.150;2022-10-19T09:43:49;102093.21;;;17.80;57.77
49063;BME280;34876;51.464;-0.150;2022-10-19T09:46:28;102096.14;;;17.36;59.05
49063;BME280;34876;51.464;-0.150;2022-10-19T09:48:59;102085.44;;;17.99;56.60
49063;BME280;34876;51.464;-0.150;2022-10-19T09:51:39;102077.81;;;17.77;56.51
49063;BME280;34876;51.464;-0.150;2022-10-19T09:51:48;102080.07;;;17.78;57.83
49063;BME280;34876;51.464;-0.150;2022-10-19T09:54:24;102079.34;;;17.88;57.23
49063;BME280;34876;51.464;-0.150;2022-10-19T09:56:55;102069.60;;;17.69;56.79
49063;BME280;34876;51.464;-0.150;2022-10-19T09:59:28;102069.21;;;17.71;56.52
49063;BME280;34876;51.464;-0.150;2022-10-19T10:02:14;102080.80;;;17.88;56.70
49063;BME280;34876;51.464;-0.150;2022-10-19T10:04:46;102077.21;;;17.80;57.09
49063;BME280;34876;51.464;-0.150;2022-10-19T10:07:16;102073.65;;;18.20;55.01
49063;BME280;34876;51.464;-0.150;2022-10-19T10:09:46;102079.65;;;17.94;56.42
49063;BME280;34876;51.464;-0.150;2022-10-19T10:12:15;102079.62;;;18.45;55.01
49063;BME280;34876;51.464;-0.150;2022-10-19T10:14:44;102081.33;;;18.26;55.92
49063;BME280;34876;51.464;-0.150;2022-10-19T10:17:17;102089.34;;;17.66;58.76
49063;BME280;34876;51.464;-0.150;2022-10-19T10:19:51;102085.66;;;17.76;56.35
49063;BME280;34876;51.464;-0.150;2022-10-19T10:22:31;102084.14;;;17.44;59.60
49063;BME280;34876;51.464;-0.150;2022-10-19T10:25:10;102084.48;;;17.75;56.58
49063;BME280;34876;51.464;-0.150;2022-10-19T10:27:40;102077.12;;;17.34;57.94
49063;BME280;34876;51.464;-0.150;2022-10-19T10:30:15;102071.68;;;18.02;55.85
49063;BME280;34876;51.464;-0.150;2022-10-19T10:32:48;102074.81;;;17.94;57.89
49063;BME280;34876;51.464;-0.150;2022-10-19T10:35:20;102068.01;;;18.09;55.40
49063;BME280;34876;51.464;-0.150;2022-10-19T10:37:51;102077.64;;;18.13;57.26
49063;BME280;34876;51.464;-0.150;2022-10-19T10:40:23;102076.44;;;18.22;54.95
49063;BME280;34876;51.464;-0.150;2022-10-19T10:42:56;102077.92;;;17.80;57.04
49063;BME280;34876;51.464;-0.150;2022-10-19T10:45:31;102079.91;;;17.98;55.74
49063;BME280;34876;51.464;-0.150;2022-10-19T10:48:13;102089.44;;;17.81;58.00
49063;BME280;34876;51.464;-0.150;2022-10-19T10:50:45;102092.34;;;17.81;58.48
49063;BME280;34876;51.464;-0.150;2022-10-19T10:53:39;102084.41;;;17.65;56.86
49063;BME280;34876;51.464;-0.150;2022-10-19T10:56:22;102076.57;;;17.99;57.15
49063;BME280;34876;51.464;-0.150;2022-10-19T10:58:56;102074.19;;;17.78;57.12
49063;BME280;34876;51.464;-0.150;2022-10-19T11:01:31;102070.50;;;17.35;59.12
49063;BME280;34876;51.464;-0.150;2022-10-19T11:04:04;102061.15;;;18.00;57.08
49063;BME280;34876;51.464;-0.150;2022-10-19T11:06:41;102058.68;;;17.78;57.96
49063;BME280;34876;51.464;-0.150;2022-10-19T11:09:17;102056.19;;;17.11;60.21
49063;BME280;34876;51.464;-0.150;2022-10-19T11:11:50;102058.74;;;17.48;58.25
49063;BME280;34876;51.464;-0.150;2022-10-19T11:14:30;102035.26;;;17.81;57.41
49063;BME280;34876;51.464;-0.150;2022-10-19T11:17:04;102027.82;;;17.83;57.16
49063;BME280;34876;51.464;-0.150;2022-10-19T11:19:38;102016.04;;;17.60;58.07
49063;BME280;34876;51.464;-0.150;2022-10-19T11:22:16;102016.03;;;16.93;60.27
49063;BME280;34876;51.464;-0.150;2022-10-19T11:24:58;102011.33;;;17.26;59.06
49063;BME280;34876;51.464;-0.150;2022-10-19T11:27:37;102004.38;;;17.43;58.98
49063;BME280;34876;51.464;-0.150;2022-10-19T11:30:11;102009.65;;;17.58;57.21
49063;BME280;34876;51.464;-0.150;2022-10-19T11:32:53;102008.30;;;17.81;57.01
49063;BME280;34876;51.464;-0.150;2022-10-19T11:35:34;102005.30;;;18.07;55.61
49063;BME280;34876;51.464;-0.150;2022-10-19T11:38:19;102001.59;;;17.39;57.93
49063;BME280;34876;51.464;-0.150;2022-10-19T11:40:57;102005.49;;;17.18;58.71
49063;BME280;34876;51.464;-0.150;2022-10-19T11:43:36;101989.55;;;17.50;58.19
49063;BME280;34876;51.464;-0.150;2022-10-19T11:46:16;101985.02;;;16.95;59.76
49063;BME280;34876;51.464;-0.150;2022-10-19T11:48:59;101969.31;;;16.95;59.80
49063;BME280;34876;51.464;-0.150;2022-10-19T11:51:37;101964.19;;;17.30;59.17
49063;BME280;34876;51.464;-0.150;2022-10-19T11:54:19;101954.93;;;17.14;58.73
49063;BME280;34876;51.464;-0.150;2022-10-19T11:56:55;101955.18;;;17.09;58.76
49063;BME280;34876;51.464;-0.150;2022-10-19T11:59:36;101960.32;;;17.39;57.90
49063;BME280;34876;51.464;-0.150;2022-10-19T12:02:28;101947.39;;;17.17;58.67
49063;BME280;34876;51.464;-0.150;2022-10-19T12:05:10;101935.85;;;17.33;59.08
49063;BME280;34876;51.464;-0.150;2022-10-19T12:07:52;101915.75;;;17.10;59.31
49063;BME280;34876;51.464;-0.150;2022-10-19T12:10:28;101914.80;;;17.50;57.70
49063;BME280;34876;51.464;-0.150;2022-10-19T12:13:01;101909.15;;;17.36;58.16
49063;BME280;34876;51.464;-0.150;2022-10-19T12:15:33;101900.69;;;17.16;58.55
49063;BME280;34876;51.464;-0.150;2022-10-19T12:18:09;101889.19;;;17.29;59.20
49063;BME280;34876;51.464;-0.150;2022-10-19T12:20:45;101874.10;;;17.24;58.43
49063;BME280;34876;51.464;-0.150;2022-10-19T12:23:22;101891.43;;;17.41;57.89
49063;BME280;34876;51.464;-0.150;2022-10-19T12:25:53;101884.14;;;17.42;57.81
49063;BME280;34876;51.464;-0.150;2022-10-19T12:28:27;101872.10;;;17.60;57.04
49063;BME280;34876;51.464;-0.150;2022-10-19T12:30:58;101868.09;;;17.42;57.75
49063;BME280;34876;51.464;-0.150;2022-10-19T12:33:38;101854.51;;;17.83;56.97
49063;BME280;34876;51.464;-0.150;2022-10-19T12:36:15;101845.58;;;17.38;58.89
49063;BME280;34876;51.464;-0.150;2022-10-19T12:38:53;101834.81;;;17.48;58.47
49063;BME280;34876;51.464;-0.150;2022-10-19T12:41:30;101820.10;;;17.49;57.78
49063;BME280;34876;51.464;-0.150;2022-10-19T12:44:16;101822.25;;;17.54;57.31
49063;BME280;34876;51.464;-0.150;2022-10-19T12:46:54;101824.29;;;17.50;58.06
49063;BME280;34876;51.464;-0.150;2022-10-19T12:49:36;101819.18;;;17.85;56.32
49063;BME280;34876;51.464;-0.150;2022-10-19T12:52:05;101825.69;;;17.39;58.03
49063;BME280;34876;51.464;-0.150;2022-10-19T12:54:36;101821.01;;;17.22;59.58
49063;BME280;34876;51.464;-0.150;2022-10-19T12:57:22;101815.60;;;17.03;59.67
49063;BME280;34876;51.464;-0.150;2022-10-19T13:00:04;101806.16;;;17.44;59.10
49063;BME280;34876;51.464;-0.150;2022-10-19T13:02:43;101799.76;;;17.87;56.33
49063;BME280;34876;51.464;-0.150;2022-10-19T13:05:20;101795.73;;;17.46;59.03
49063;BME280;34876;51.464;-0.150;2022-10-19T13:07:51;101806.13;;;17.35;58.12